createdAt,value
2018-11-29T00:00:54.013Z,99714.00
2018-11-29T00:03:24.003Z,99708.00
2018-11-29T00:05:53.875Z,99719.00
2018-11-29T00:08:23.604Z,99711.00
2018-11-29T00:10:53.572Z,99710.00
2018-11-29T00:13:23.373Z,99707.00
2018-11-29T00:15:53.374Z,99703.00
2018-11-29T00:18:23.574Z,99710.00
2018-11-29T00:20:53.522Z,99698.00
2018-11-29T00:23:23.332Z,99715.00
2018-11-29T00:25:53.264Z,99714.00
2018-11-29T00:28:23.063Z,99709.00
2018-11-29T00:30:53.402Z,99711.00
2018-11-29T00:33:23.124Z,99699.00
2018-11-29T00:35:54.292Z,99710.00
2018-11-29T00:38:24.153Z,99711.00
2018-11-29T00:40:54.243Z,99715.00
2018-11-29T00:43:24.163Z,99706.00
2018-11-29T00:45:54.273Z,99706.00
2018-11-29T00:48:24.225Z,99714.00
2018-11-29T00:50:54.363Z,99714.00
2018-11-29T00:53:24.393Z,99720.00
2018-11-29T00:55:54.443Z,99710.00
2018-11-29T00:58:24.444Z,99712.00
2018-11-29T01:00:54.542Z,99713.00
2018-11-29T01:03:24.073Z,99719.00
2018-11-29T01:05:54.362Z,99713.00
2018-11-29T01:08:24.363Z,99719.00
2018-11-29T01:10:54.206Z,99718.00
2018-11-29T01:13:24.364Z,99715.00
2018-11-29T01:15:54.353Z,99711.00
2018-11-29T01:18:24.283Z,99708.00
2018-11-29T01:20:54.354Z,99719.00
2018-11-29T01:23:25.582Z,99712.00
2018-11-29T01:25:55.763Z,99721.00
2018-11-29T01:28:25.732Z,99732.00
2018-11-29T01:30:55.748Z,99732.00
2018-11-29T01:33:25.344Z,99726.00
2018-11-29T01:35:55.263Z,99721.00
2018-11-29T01:38:25.174Z,99738.00
2018-11-29T01:40:55.223Z,99722.00
2018-11-29T01:43:25.178Z,99729.00
2018-11-29T01:45:55.244Z,99723.00
2018-11-29T01:48:26.114Z,99727.00
2018-11-29T01:50:56.114Z,99729.00
2018-11-29T01:53:25.852Z,99716.00
2018-11-29T01:55:56.084Z,99723.00
2018-11-29T01:58:26.086Z,99720.00
2018-11-29T02:00:56.423Z,99711.00
2018-11-29T02:03:26.485Z,99700.00
2018-11-29T02:05:56.503Z,99696.00
2018-11-29T02:08:26.585Z,99702.00
2018-11-29T02:10:56.783Z,99709.00
2018-11-29T02:13:26.713Z,99704.00
2018-11-29T02:15:56.844Z,99704.00
2018-11-29T02:18:26.824Z,99697.00
2018-11-29T02:20:56.893Z,99719.00
2018-11-29T02:23:27.043Z,99721.00
2018-11-29T02:25:57.007Z,99722.00
2018-11-29T02:28:27.068Z,99703.00
2018-11-29T02:30:57.133Z,99708.00
2018-11-29T02:33:27.005Z,99714.00
2018-11-29T02:35:57.169Z,99712.00
2018-11-29T02:38:27.158Z,99715.00
2018-11-29T02:40:57.127Z,99701.00
2018-11-29T02:43:27.324Z,99704.00
2018-11-29T02:45:57.757Z,99705.00
2018-11-29T02:48:27.874Z,99700.00
2018-11-29T02:50:57.783Z,99685.00
2018-11-29T02:53:28.026Z,99685.00
2018-11-29T02:55:57.887Z,99692.00
2018-11-29T02:58:28.324Z,99690.00
2018-11-29T03:00:58.257Z,99679.00
2018-11-29T03:03:28.759Z,99677.00
2018-11-29T03:05:59.174Z,99685.00
2018-11-29T03:08:29.213Z,99696.00
2018-11-29T03:10:59.103Z,99702.00
2018-11-29T03:13:29.194Z,99697.00
2018-11-29T03:15:59.514Z,99683.00
2018-11-29T03:18:29.515Z,99681.00
2018-11-29T03:20:59.394Z,99687.00
2018-11-29T03:23:30.814Z,99694.00
2018-11-29T03:26:00.915Z,99691.00
2018-11-29T03:28:31.015Z,99686.00
2018-11-29T03:31:01.065Z,99687.00
2018-11-29T03:33:31.401Z,99687.00
2018-11-29T03:36:01.405Z,99681.00
2018-11-29T03:38:31.313Z,99676.00
2018-11-29T03:41:01.443Z,99674.00
2018-11-29T03:43:31.433Z,99670.00
2018-11-29T03:46:01.963Z,99678.00
2018-11-29T03:48:31.186Z,99680.00
2018-11-29T03:51:00.955Z,99677.00
2018-11-29T03:53:30.440Z,99678.00
2018-11-29T03:55:59.757Z,99677.00
2018-11-29T03:58:29.684Z,99677.00
2018-11-29T04:00:59.794Z,99666.00
2018-11-29T04:03:29.703Z,99669.00
2018-11-29T04:05:59.665Z,99662.00
2018-11-29T04:08:30.183Z,99661.00
2018-11-29T04:11:00.225Z,99662.00
2018-11-29T04:13:30.165Z,99660.00
2018-11-29T04:16:00.184Z,99663.00
2018-11-29T04:18:30.145Z,99658.00
2018-11-29T04:21:02.531Z,99661.00
2018-11-29T04:23:32.374Z,99659.00
2018-11-29T04:26:02.264Z,99659.00
2018-11-29T04:28:32.332Z,99642.00
2018-11-29T04:31:02.534Z,99640.00
2018-11-29T04:33:32.505Z,99648.00
2018-11-29T04:36:02.343Z,99661.00
2018-11-29T04:38:32.255Z,99661.00
2018-11-29T04:41:02.145Z,99660.00
2018-11-29T04:43:32.224Z,99648.00
2018-11-29T04:47:15.597Z,99629.00
2018-11-29T04:49:45.645Z,99634.00
2018-11-29T04:52:15.836Z,99635.00
2018-11-29T04:54:45.924Z,99643.00
2018-11-29T04:57:15.929Z,99649.00
2018-11-29T04:59:46.194Z,99630.00
2018-11-29T05:02:16.195Z,99624.00
2018-11-29T05:04:46.114Z,99628.00
2018-11-29T05:07:16.204Z,99639.00
2018-11-29T05:09:46.235Z,99637.00
2018-11-29T05:12:15.885Z,99632.00
2018-11-29T05:14:45.884Z,99637.00
2018-11-29T05:17:15.924Z,99634.00
2018-11-29T05:19:45.983Z,99633.00
2018-11-29T05:22:16.344Z,99631.00
2018-11-29T05:24:45.884Z,99627.00
2018-11-29T05:27:18.784Z,99633.00
2018-11-29T05:29:48.854Z,99642.00
2018-11-29T05:32:18.694Z,99626.00
2018-11-29T05:34:48.613Z,99636.00
2018-11-29T05:37:18.503Z,99640.00
2018-11-29T05:39:48.444Z,99636.00
2018-11-29T05:42:18.563Z,99639.00
2018-11-29T05:44:48.686Z,99631.00
2018-11-29T05:47:18.484Z,99634.00
2018-11-29T05:49:48.534Z,99635.00
2018-11-29T05:52:18.614Z,99629.00
2018-11-29T05:54:48.853Z,99627.00
2018-11-29T05:57:18.843Z,99634.00
2018-11-29T05:59:48.874Z,99633.00
2018-11-29T06:02:18.776Z,99649.00
2018-11-29T06:04:48.744Z,99637.00
2018-11-29T06:07:18.604Z,99647.00
2018-11-29T06:09:48.573Z,99645.00
2018-11-29T06:12:18.363Z,99644.00
2018-11-29T06:14:48.426Z,99637.00
2018-11-29T06:17:18.153Z,99634.00
2018-11-29T06:19:48.334Z,99630.00
2018-11-29T06:22:18.503Z,99626.00
2018-11-29T06:24:48.563Z,99633.00
2018-11-29T06:27:18.504Z,99635.00
2018-11-29T06:29:48.553Z,99625.00
2018-11-29T06:32:18.584Z,99633.00
2018-11-29T06:34:49.044Z,99629.00
2018-11-29T06:37:19.123Z,99639.00
2018-11-29T06:39:49.134Z,99645.00
2018-11-29T06:42:19.145Z,99651.00
2018-11-29T06:44:48.963Z,99651.00
2018-11-29T06:47:18.894Z,99647.00
2018-11-29T06:49:48.964Z,99645.00
2018-11-29T06:52:18.804Z,99640.00
2018-11-29T06:54:48.134Z,99634.00
2018-11-29T06:57:18.164Z,99631.00
2018-11-29T06:59:48.364Z,99632.00
2018-11-29T07:02:18.334Z,99636.00
2018-11-29T07:04:47.924Z,99644.00
2018-11-29T07:07:18.033Z,99648.00
2018-11-29T07:09:48.014Z,99657.00
2018-11-29T07:12:18.119Z,99653.00
2018-11-29T07:14:48.264Z,99657.00
2018-11-29T07:17:17.594Z,99654.00
2018-11-29T07:19:47.774Z,99650.00
2018-11-29T07:22:17.973Z,99646.00
2018-11-29T07:24:48.204Z,99651.00
2018-11-29T07:27:18.832Z,99645.00
2018-11-29T07:29:48.743Z,99647.00
2018-11-29T07:32:24.004Z,99656.00
2018-11-29T07:34:54.014Z,99650.00
2018-11-29T07:37:24.115Z,99644.00
2018-11-29T07:39:54.105Z,99642.00
2018-11-29T07:42:24.143Z,99646.00
2018-11-29T07:44:54.613Z,99637.00
2018-11-29T07:47:24.453Z,99642.00
2018-11-29T07:49:54.514Z,99636.00
2018-11-29T07:52:24.623Z,99625.00
2018-11-29T07:54:54.363Z,99626.00
2018-11-29T07:57:24.503Z,99618.00
2018-11-29T07:59:54.566Z,99609.00
2018-11-29T08:02:24.576Z,99612.00
2018-11-29T08:04:55.578Z,99613.00
2018-11-29T08:07:25.356Z,99611.00
2018-11-29T08:09:55.443Z,99606.00
2018-11-29T08:12:25.513Z,99609.00
2018-11-29T08:14:55.794Z,99608.00
2018-11-29T08:17:25.894Z,99611.00
2018-11-29T08:19:56.094Z,99601.00
2018-11-29T08:22:26.902Z,99596.00
2018-11-29T08:24:56.753Z,99593.00
2018-11-29T08:27:26.776Z,99595.00
2018-11-29T08:29:56.973Z,99589.00
2018-11-29T08:32:26.994Z,99589.00
2018-11-29T08:34:57.044Z,99587.00
2018-11-29T08:37:27.154Z,99587.00
2018-11-29T08:39:57.163Z,99577.00
2018-11-29T08:42:27.193Z,99587.00
2018-11-29T08:44:57.223Z,99570.00
2018-11-29T08:47:27.207Z,99583.00
2018-11-29T08:49:57.284Z,99576.00
2018-11-29T08:52:27.458Z,99571.00
2018-11-29T08:54:57.265Z,99562.00
2018-11-29T08:57:27.167Z,99550.00
2018-11-29T08:59:57.236Z,99546.00
2018-11-29T09:02:27.023Z,99552.00
2018-11-29T09:04:57.589Z,99536.00
2018-11-29T09:07:33.944Z,99541.00
2018-11-29T09:10:04.852Z,99541.00
2018-11-29T09:12:34.127Z,99543.00
2018-11-29T09:15:04.194Z,99543.00
2018-11-29T09:17:34.113Z,99545.00
2018-11-29T09:20:04.483Z,99540.00
2018-11-29T09:22:34.484Z,99540.00
2018-11-29T09:25:04.826Z,99531.00
2018-11-29T09:27:34.733Z,99538.00
2018-11-29T09:30:08.394Z,99534.00
2018-11-29T09:32:38.696Z,99534.00
2018-11-29T09:35:09.034Z,99522.00
2018-11-29T09:37:38.603Z,99512.00
2018-11-29T09:40:13.044Z,99518.00
2018-11-29T09:42:43.323Z,99520.00
2018-11-29T09:45:20.604Z,99514.00
2018-11-29T09:47:52.364Z,99507.00
2018-11-29T09:50:22.923Z,99490.00
2018-11-29T09:52:53.014Z,99498.00
2018-11-29T09:55:23.223Z,99490.00
2018-11-29T09:57:53.204Z,99487.00
2018-11-29T10:00:28.077Z,99485.00
2018-11-29T10:03:07.085Z,99468.00
2018-11-29T10:05:37.108Z,99467.00
2018-11-29T10:08:11.856Z,99467.00
2018-11-29T10:10:39.165Z,99471.00
2018-11-29T10:13:09.585Z,99462.00
2018-11-29T10:15:39.784Z,99467.00
2018-11-29T10:18:11.264Z,99454.00
2018-11-29T10:20:41.368Z,99443.00
2018-11-29T10:23:11.145Z,99442.00
2018-11-29T10:25:42.384Z,99434.00
2018-11-29T10:28:14.715Z,99440.00
2018-11-29T10:30:50.804Z,99441.00
2018-11-29T10:33:20.719Z,99446.00
2018-11-29T10:35:50.755Z,99438.00
2018-11-29T10:38:20.877Z,99426.00
2018-11-29T10:40:50.763Z,99422.00
2018-11-29T10:43:20.764Z,99419.00
2018-11-29T10:45:50.735Z,99410.00
2018-11-29T10:48:23.503Z,99408.00
2018-11-29T10:50:53.485Z,99410.00
2018-11-29T10:53:23.363Z,99418.00
2018-11-29T10:55:53.869Z,99401.00
2018-11-29T10:58:23.915Z,99406.00
2018-11-29T11:00:59.443Z,99403.00
2018-11-29T11:03:29.944Z,99386.00
2018-11-29T11:06:00.026Z,99374.00
2018-11-29T11:08:30.194Z,99358.00
2018-11-29T11:11:04.884Z,99352.00
2018-11-29T11:13:34.994Z,99330.00
2018-11-29T11:16:06.674Z,99332.00
2018-11-29T11:18:36.953Z,99322.00
2018-11-29T11:21:07.209Z,99319.00
2018-11-29T11:23:37.344Z,99320.00
2018-11-29T11:26:08.505Z,99326.00
2018-11-29T11:28:38.424Z,99312.00
2018-11-29T11:31:08.424Z,99318.00
2018-11-29T11:33:38.673Z,99318.00
2018-11-29T11:36:08.804Z,99291.00
2018-11-29T11:38:38.694Z,99311.00
2018-11-29T11:41:08.867Z,99319.00
2018-11-29T11:43:38.824Z,99317.00
2018-11-29T11:46:08.595Z,99320.00
2018-11-29T11:48:38.866Z,99318.00
2018-11-29T11:51:08.784Z,99316.00
2018-11-29T11:53:39.044Z,99297.00
2018-11-29T11:56:08.888Z,99307.00
2018-11-29T11:58:38.794Z,99290.00
2018-11-29T12:01:08.707Z,99290.00
2018-11-29T12:03:39.248Z,99279.00
2018-11-29T12:06:09.425Z,99280.00
2018-11-29T12:08:39.465Z,99278.00
2018-11-29T12:11:09.565Z,99279.00
2018-11-29T12:13:39.505Z,99271.00
2018-11-29T12:16:09.474Z,99266.00
2018-11-29T12:18:39.101Z,99265.00
2018-11-29T12:21:09.444Z,99242.00
2018-11-29T12:23:39.596Z,99242.00
2018-11-29T12:26:10.094Z,99233.00
2018-11-29T12:28:39.664Z,99237.00
2018-11-29T12:31:09.915Z,99226.00
2018-11-29T12:33:39.784Z,99222.00
2018-11-29T12:36:09.825Z,99215.00
2018-11-29T12:38:39.754Z,99206.00
2018-11-29T12:41:09.755Z,99207.00
2018-11-29T12:43:39.644Z,99201.00
2018-11-29T12:46:09.526Z,99192.00
2018-11-29T12:48:39.484Z,99180.00
2018-11-29T12:51:09.534Z,99196.00
2018-11-29T12:53:39.605Z,99188.00
2018-11-29T12:56:09.595Z,99197.00
2018-11-29T12:58:39.624Z,99187.00
2018-11-29T13:01:09.715Z,99216.00
2018-11-29T13:03:39.365Z,99192.00
2018-11-29T13:06:09.338Z,99215.00
2018-11-29T13:08:40.445Z,99217.00
2018-11-29T13:11:10.768Z,99218.00
2018-11-29T13:13:40.423Z,99221.00
2018-11-29T13:16:10.485Z,99218.00
2018-11-29T13:18:40.634Z,99213.00
2018-11-29T13:21:10.603Z,99213.00
2018-11-29T13:23:40.734Z,99219.00
2018-11-29T13:26:10.785Z,99212.00
2018-11-29T13:28:40.834Z,99209.00
2018-11-29T13:31:10.444Z,99216.00
2018-11-29T13:33:40.832Z,99202.00
2018-11-29T13:36:10.794Z,99199.00
2018-11-29T13:38:40.218Z,99205.00
2018-11-29T13:41:10.418Z,99207.00
2018-11-29T13:43:40.577Z,99205.00
2018-11-29T13:46:10.575Z,99202.00
2018-11-29T13:48:40.932Z,99198.00
2018-11-29T13:51:10.964Z,99190.00
2018-11-29T13:53:40.974Z,99197.00
2018-11-29T13:56:11.345Z,99205.00
2018-11-29T13:58:41.613Z,99190.00
2018-11-29T14:01:11.803Z,99189.00
2018-11-29T14:03:48.273Z,99200.00
2018-11-29T14:06:18.294Z,99198.00
2018-11-29T14:08:48.542Z,99187.00
2018-11-29T14:11:18.594Z,99193.00
2018-11-29T14:13:48.564Z,99197.00
2018-11-29T14:16:18.475Z,99207.00
2018-11-29T14:18:48.443Z,99215.00
2018-11-29T14:21:17.666Z,99212.00
2018-11-29T14:23:47.564Z,99224.00
2018-11-29T14:26:17.594Z,99216.00
2018-11-29T14:28:47.565Z,99217.00
2018-11-29T14:31:17.955Z,99222.00
2018-11-29T14:33:48.005Z,99222.00
2018-11-29T14:36:18.311Z,99212.00
2018-11-29T14:38:48.507Z,99201.00
2018-11-29T14:41:19.263Z,99191.00
2018-11-29T14:43:48.622Z,99189.00
2018-11-29T14:46:18.644Z,99185.00
2018-11-29T14:48:48.765Z,99182.00
2018-11-29T14:51:19.224Z,99174.00
2018-11-29T14:53:49.183Z,99180.00
2018-11-29T14:56:19.311Z,99174.00
2018-11-29T14:58:49.604Z,99171.00
2018-11-29T15:01:19.714Z,99172.00
2018-11-29T15:03:49.684Z,99162.00
2018-11-29T15:06:19.765Z,99164.00
2018-11-29T15:08:49.662Z,99149.00
2018-11-29T15:11:19.654Z,99147.00
2018-11-29T15:13:50.844Z,99147.00
2018-11-29T15:16:20.744Z,99143.00
2018-11-29T15:18:51.095Z,99146.00
2018-11-29T15:21:21.144Z,99135.00
2018-11-29T15:23:51.202Z,99134.00
2018-11-29T15:26:21.148Z,99142.00
2018-11-29T15:28:51.434Z,99147.00
2018-11-29T15:31:22.115Z,99147.00
2018-11-29T15:33:51.983Z,99137.00
2018-11-29T15:36:22.185Z,99140.00
2018-11-29T15:38:52.264Z,99147.00
2018-11-29T15:41:23.164Z,99137.00
2018-11-29T15:43:53.235Z,99137.00
2018-11-29T15:46:30.094Z,99136.00
2018-11-29T15:49:00.563Z,99138.00
2018-11-29T15:51:31.084Z,99134.00
2018-11-29T15:54:01.146Z,99141.00
2018-11-29T15:56:31.054Z,99143.00
2018-11-29T15:59:00.984Z,99141.00
2018-11-29T16:01:31.274Z,99146.00
2018-11-29T16:04:01.105Z,99156.00
2018-11-29T16:06:31.074Z,99151.00
2018-11-29T16:09:01.084Z,99148.00
2018-11-29T16:11:33.834Z,99149.00
2018-11-29T16:14:04.098Z,99149.00
2018-11-29T16:16:33.993Z,99148.00
2018-11-29T16:19:04.012Z,99136.00
2018-11-29T16:21:33.925Z,99142.00
2018-11-29T16:24:04.044Z,99141.00
2018-11-29T16:26:34.373Z,99127.00
2018-11-29T16:29:04.633Z,99126.00
2018-11-29T16:31:34.813Z,99128.00
2018-11-29T16:34:04.365Z,99119.00
2018-11-29T16:36:34.323Z,99125.00
2018-11-29T16:39:06.034Z,99126.00
2018-11-29T16:41:36.113Z,99137.00
2018-11-29T16:44:05.501Z,99125.00
2018-11-29T16:46:35.344Z,99128.00
2018-11-29T16:49:06.074Z,99119.00
2018-11-29T16:51:36.074Z,99120.00
2018-11-29T16:54:06.204Z,99116.00
2018-11-29T16:56:36.364Z,99108.00
2018-11-29T16:59:06.324Z,99116.00
2018-11-29T17:01:36.534Z,99116.00
2018-11-29T17:04:07.057Z,99120.00
2018-11-29T17:06:37.384Z,99104.00
2018-11-29T17:09:10.263Z,99100.00
2018-11-29T17:11:40.333Z,99097.00
2018-11-29T17:14:10.434Z,99095.00
2018-11-29T17:16:40.452Z,99098.00
2018-11-29T17:19:10.605Z,99100.00
2018-11-29T17:21:40.483Z,99105.00
2018-11-29T17:24:10.585Z,99108.00
2018-11-29T17:26:53.509Z,99119.00
2018-11-29T17:29:25.554Z,99110.00
2018-11-29T17:31:56.960Z,99110.00
2018-11-29T17:34:41.562Z,99107.00
2018-11-29T17:37:11.602Z,99102.00
2018-11-29T17:39:41.933Z,99096.00
2018-11-29T17:42:12.324Z,99090.00
2018-11-29T17:44:42.625Z,99081.00
2018-11-29T17:47:13.363Z,99072.00
2018-11-29T17:49:43.634Z,99066.00
2018-11-29T17:52:13.805Z,99074.00
2018-11-29T17:54:44.084Z,99075.00
2018-11-29T17:57:14.184Z,99073.00
2018-11-29T17:59:44.254Z,99071.00
2018-11-29T18:02:14.903Z,99070.00
2018-11-29T18:04:45.554Z,99074.00
2018-11-29T18:07:15.725Z,99066.00
2018-11-29T18:09:46.240Z,99062.00
2018-11-29T18:12:15.849Z,99069.00
2018-11-29T18:14:45.934Z,99067.00
2018-11-29T18:17:15.923Z,99071.00
2018-11-29T18:19:47.234Z,99063.00
2018-11-29T18:22:17.441Z,99071.00
2018-11-29T18:24:47.783Z,99078.00
2018-11-29T18:27:17.975Z,99069.00
2018-11-29T18:29:48.102Z,99076.00
2018-11-29T18:32:18.123Z,99073.00
2018-11-29T18:34:48.164Z,99067.00
2018-11-29T18:37:17.852Z,99076.00
2018-11-29T18:39:48.023Z,99067.00
2018-11-29T18:42:18.653Z,99065.00
2018-11-29T18:44:48.795Z,99067.00
2018-11-29T18:47:28.351Z,99063.00
2018-11-29T18:49:58.373Z,99065.00
2018-11-29T18:52:28.354Z,99056.00
2018-11-29T18:54:58.193Z,99055.00
2018-11-29T18:57:28.172Z,99053.00
2018-11-29T18:59:58.307Z,99056.00
2018-11-29T19:02:28.323Z,99059.00
2018-11-29T19:04:58.494Z,99049.00
2018-11-29T19:07:28.673Z,99047.00
2018-11-29T19:09:59.850Z,99050.00
2018-11-29T19:12:29.867Z,99039.00
2018-11-29T19:14:59.833Z,99034.00
2018-11-29T19:17:29.812Z,99032.00
2018-11-29T19:19:59.984Z,99031.00
2018-11-29T19:22:30.443Z,99031.00
2018-11-29T19:25:00.573Z,99022.00
2018-11-29T19:27:30.803Z,99025.00
2018-11-29T19:30:04.284Z,99020.00
2018-11-29T19:32:31.678Z,99025.00
2018-11-29T19:35:01.804Z,99018.00
2018-11-29T19:37:31.652Z,99015.00
2018-11-29T19:40:01.824Z,99016.00
2018-11-29T19:42:31.803Z,99018.00
2018-11-29T19:45:02.233Z,99019.00
2018-11-29T19:47:32.153Z,99017.00
2018-11-29T19:50:01.886Z,99008.00
2018-11-29T19:52:32.103Z,99006.00
2018-11-29T19:55:02.167Z,99004.00
2018-11-29T19:57:31.983Z,99015.00
2018-11-29T20:00:02.084Z,99011.00
2018-11-29T20:02:33.874Z,99006.00
2018-11-29T20:05:04.142Z,99010.00
2018-11-29T20:07:34.143Z,99012.00
2018-11-29T20:10:04.513Z,99019.00
2018-11-29T20:12:34.424Z,99026.00
2018-11-29T20:15:05.103Z,99016.00
2018-11-29T20:17:35.044Z,99023.00
2018-11-29T20:20:06.013Z,99025.00
2018-11-29T20:22:36.673Z,99029.00
2018-11-29T20:25:13.684Z,99030.00
2018-11-29T20:27:44.174Z,99027.00
2018-11-29T20:30:17.753Z,99025.00
2018-11-29T20:32:48.893Z,99025.00
2018-11-29T20:35:19.702Z,99027.00
2018-11-29T20:37:50.914Z,99026.00
2018-11-29T20:40:29.943Z,99015.00
2018-11-29T20:43:01.463Z,99020.00
2018-11-29T20:45:45.243Z,99019.00
2018-11-29T20:48:20.874Z,99021.00
2018-11-29T20:50:51.994Z,99020.00
2018-11-29T20:53:26.915Z,99018.00
2018-11-29T20:55:56.914Z,99018.00
2018-11-29T20:58:26.884Z,99017.00
2018-11-29T21:00:56.773Z,99015.00
2018-11-29T21:03:27.304Z,99009.00
2018-11-29T21:05:57.205Z,99009.00
2018-11-29T21:08:27.403Z,98999.00
2018-11-29T21:10:57.442Z,99013.00
2018-11-29T21:13:27.623Z,99014.00
2018-11-29T21:15:57.673Z,99023.00
2018-11-29T21:18:27.773Z,99022.00
2018-11-29T21:20:57.832Z,99017.00
2018-11-29T21:23:27.873Z,99018.00
2018-11-29T21:25:58.232Z,99011.00
2018-11-29T21:28:28.283Z,99014.00
2018-11-29T21:30:58.313Z,99016.00
2018-11-29T21:33:28.671Z,99013.00
2018-11-29T21:35:58.873Z,99003.00
2018-11-29T21:38:28.843Z,99010.00
2018-11-29T21:41:01.604Z,98999.00
2018-11-29T21:43:31.795Z,99006.00
2018-11-29T21:46:01.793Z,99007.00
2018-11-29T21:48:31.906Z,98994.00
2018-11-29T21:51:01.803Z,98988.00
2018-11-29T21:53:31.913Z,98991.00
2018-11-29T21:56:01.973Z,98999.00
2018-11-29T21:58:32.393Z,99003.00
2018-11-29T22:01:02.424Z,98981.00
2018-11-29T22:03:32.373Z,98991.00
2018-11-29T22:06:02.344Z,98986.00
2018-11-29T22:08:31.912Z,98988.00
2018-11-29T22:11:02.067Z,98999.00
2018-11-29T22:13:31.635Z,98992.00
2018-11-29T22:16:01.368Z,99002.00
2018-11-29T22:18:30.989Z,99001.00
2018-11-29T22:21:04.003Z,99008.00
2018-11-29T22:23:35.721Z,99004.00
2018-11-29T22:26:09.918Z,98993.00
2018-11-29T22:28:40.412Z,98996.00
2018-11-29T22:31:10.514Z,98991.00
2018-11-29T22:33:40.475Z,99001.00
2018-11-29T22:36:10.281Z,98989.00
2018-11-29T22:38:40.214Z,98992.00
2018-11-29T22:41:10.193Z,98990.00
2018-11-29T22:43:40.993Z,98980.00
2018-11-29T22:46:10.853Z,98979.00
2018-11-29T22:48:41.073Z,98982.00
2018-11-29T22:51:10.953Z,98989.00
2018-11-29T22:53:41.062Z,98973.00
2018-11-29T22:56:10.993Z,98978.00
2018-11-29T22:58:41.072Z,98976.00
2018-11-29T23:01:16.272Z,98970.00
2018-11-29T23:03:46.363Z,98955.00
2018-11-29T23:06:16.402Z,98963.00
2018-11-29T23:08:46.393Z,98959.00
2018-11-29T23:11:16.326Z,98960.00
2018-11-29T23:13:46.312Z,98947.00
2018-11-29T23:16:16.423Z,98948.00
2018-11-29T23:18:46.793Z,98952.00
2018-11-29T23:21:16.793Z,98938.00
2018-11-29T23:23:47.323Z,98937.00
2018-11-29T23:26:17.533Z,98940.00
2018-11-29T23:28:47.814Z,98942.00
2018-11-29T23:31:17.702Z,98940.00
2018-11-29T23:33:47.667Z,98939.00
2018-11-29T23:36:17.652Z,98939.00
2018-11-29T23:38:47.703Z,98935.00
2018-11-29T23:41:17.345Z,98935.00
2018-11-29T23:43:48.073Z,98938.00
2018-11-29T23:46:18.143Z,98931.00
2018-11-29T23:48:48.993Z,98928.00
2018-11-29T23:51:19.033Z,98927.00
2018-11-29T23:53:48.972Z,98928.00
2018-11-29T23:56:19.203Z,98932.00
2018-11-29T23:58:49.103Z,98927.00
